Time;durP1;ratioP1;P1;durP2;ratioP2;P2;SDS_P1;SDS_P2;PMS_P1;PMS_P2;Temp;Humidity;BMP_temperature;BMP_pressure;BME280_temperature;BME280_humidity;BME280_pressure;Samples;Min_cycle;Max_cycle;Signal;HPM_P1;HPM_P2
2022/04/28 00:04:25;;;;;;;11.87;8.17;;;14.10;80.80;;;;;;12794870;23;20547;-87
2022/04/28 00:09:28;;;;;;;8.37;7.23;;;14.00;80.20;;;;;;12767661;23;20531;-87
2022/04/28 00:14:31;;;;;;;6.50;5.13;;;13.80;81.30;;;;;;12812251;23;20175;-87
2022/04/28 00:19:33;;;;;;;14.47;9.80;;;13.80;81.80;;;;;;12794941;23;20191;-87
2022/04/28 00:24:36;;;;;;;8.43;6.60;;;13.80;80.70;;;;;;12794577;23;20168;-87
2022/04/28 00:29:39;;;;;;;8.43;6.60;;;13.50;82.10;;;;;;12742612;23;20179;-87
2022/04/28 00:34:42;;;;;;;11.43;8.03;;;13.00;83.70;;;;;;12768556;23;20164;-87
2022/04/28 00:39:45;;;;;;;18.97;12.40;;;13.00;83.50;;;;;;12742291;23;20195;-87
2022/04/28 00:44:48;;;;;;;9.30;7.03;;;12.20;83.00;;;;;;12792179;23;20231;-87
2022/04/28 00:55:11;;;;;;;7.27;5.67;;;13.40;83.60;;;;;;12767506;23;20207;-87
2022/04/28 01:00:15;;;;;;;8.80;6.37;;;13.70;82.50;;;;;;12791749;23;20197;-87
2022/04/28 01:05:18;;;;;;;7.03;5.13;;;14.00;81.30;;;;;;12766897;23;20176;-87
2022/04/28 01:10:21;;;;;;;6.83;5.30;;;14.30;80.10;;;;;;12766958;23;20180;-87
2022/04/28 01:15:23;;;;;;;7.03;6.33;;;14.40;79.50;;;;;;12766542;23;20199;-87
2022/04/28 01:20:27;;;;;;;5.60;4.97;;;14.30;79.00;;;;;;12791496;23;20199;-86
2022/04/28 01:25:29;;;;;;;6.40;4.97;;;14.10;79.80;;;;;;12766670;23;20176;-87
2022/04/28 01:30:34;;;;;;;7.47;5.40;;;14.20;79.90;;;;;;12766320;23;20234;-87
2022/04/28 01:35:36;;;;;;;10.43;5.73;;;14.20;79.80;;;;;;12790695;23;20207;-87
2022/04/28 01:40:39;;;;;;;7.70;6.20;;;14.20;79.20;;;;;;12792548;23;20534;-87
2022/04/28 01:45:42;;;;;;;6.03;5.00;;;14.50;78.60;;;;;;12790007;23;20175;-87
2022/04/28 01:54:57;;;;;;;6.13;5.23;;;14.60;78.70;;;;;;12786911;23;20208;-87
2022/04/28 01:56:08;;;;;;;6.17;5.07;;;14.80;77.50;;;;;;12790157;23;20530;-87
2022/04/28 02:01:20;;;;;;;6.70;5.23;;;14.90;76.80;;;;;;12766006;23;20234;-87
2022/04/28 02:06:23;;;;;;;8.53;5.80;;;14.60;77.40;;;;;;12765556;23;20219;-87
2022/04/28 02:11:27;;;;;;;5.67;5.17;;;14.60;77.30;;;;;;12789871;23;20180;-87
2022/04/28 02:16:50;;;;;;;5.70;4.87;;;14.50;77.80;;;;;;12765674;23;20171;-87
2022/04/28 02:22:00;;;;;;;7.13;5.57;;;14.50;77.80;;;;;;12765001;23;20388;-87
2022/04/28 02:27:03;;;;;;;6.10;4.73;;;14.40;77.40;;;;;;12764840;23;20176;-87
2022/04/28 02:32:06;;;;;;;6.67;5.67;;;14.30;78.30;;;;;;12765214;23;20570;-87
2022/04/28 02:37:09;;;;;;;8.33;6.43;;;14.30;78.10;;;;;;12789571;23;20280;-87
2022/04/28 02:42:14;;;;;;;5.17;4.57;;;14.30;78.20;;;;;;12764306;23;20232;-87
2022/04/28 02:47:17;;;;;;;6.63;5.30;;;14.50;78.20;;;;;;12764833;23;20168;-87
2022/04/28 02:52:21;;;;;;;6.97;5.37;;;14.40;77.90;;;;;;12764499;23;20236;-87
2022/04/28 02:57:26;;;;;;;7.40;6.03;;;14.20;78.30;;;;;;12763989;23;20226;-87
2022/04/28 03:02:30;;;;;;;7.80;5.80;;;14.00;78.70;;;;;;12768958;23;20172;-87
2022/04/28 03:13:07;;;;;;;14.60;8.00;;;13.90;79.90;;;;;;12768910;23;20184;-87
2022/04/28 03:18:14;;;;;;;7.63;5.53;;;14.10;78.00;;;;;;12793725;23;20231;-86
2022/04/28 03:23:16;;;;;;;5.50;4.93;;;14.30;78.50;;;;;;12793866;23;20172;-87
2022/04/28 03:28:19;;;;;;;6.40;5.63;;;14.50;77.90;;;;;;12744531;23;20228;-87
2022/04/28 03:33:22;;;;;;;7.30;5.60;;;14.80;76.80;;;;;;12793433;23;20179;-87
2022/04/28 03:38:24;;;;;;;7.17;5.13;;;14.90;76.10;;;;;;12795789;23;20187;-87
2022/04/28 03:43:27;;;;;;;6.60;5.07;;;15.20;75.20;;;;;;12769599;23;20168;-87
2022/04/28 03:48:32;;;;;;;5.27;4.50;;;15.30;74.60;;;;;;12768755;23;20180;-87
2022/04/28 03:53:34;;;;;;;11.47;8.00;;;15.20;74.70;;;;;;12796089;23;20245;-87
2022/04/28 03:58:37;;;;;;;6.93;6.13;;;15.20;71.80;;;;;;12768457;23;20205;-87
2022/04/28 04:03:39;;;;;;;5.43;4.90;;;15.30;74.40;;;;;;12768516;23;20199;-86
2022/04/28 04:08:42;;;;;;;7.60;5.30;;;15.20;74.30;;;;;;12768016;23;20636;-87
2022/04/28 04:13:47;;;;;;;12.73;7.40;;;15.30;74.30;;;;;;12767855;23;20176;-87
2022/04/28 04:18:49;;;;;;;6.83;5.47;;;14.90;73.70;;;;;;12767825;23;20259;-87
2022/04/28 04:23:59;;;;;;;7.90;5.77;;;14.30;76.90;;;;;;12767701;23;20176;-86
2022/04/28 04:29:02;;;;;;;7.17;5.40;;;15.10;74.70;;;;;;12767725;23;20574;-87
2022/04/28 04:34:27;;;;;;;5.70;5.10;;;15.30;73.90;;;;;;12773232;23;20698;-87
2022/04/28 04:39:30;;;;;;;9.03;7.37;;;15.50;73.20;;;;;;12767145;23;20204;-87
2022/04/28 04:44:33;;;;;;;10.87;6.73;;;15.60;71.60;;;;;;12766655;23;20198;-87
2022/04/28 04:49:36;;;;;;;5.10;4.60;;;15.40;72.30;;;;;;12791289;23;20200;-87
2022/04/28 04:54:48;;;;;;;7.27;6.03;;;15.50;72.90;;;;;;12766639;23;20242;-87
2022/04/28 04:59:51;;;;;;;6.57;5.57;;;14.10;77.00;;;;;;12765115;23;20250;-87
2022/04/28 05:04:54;;;;;;;8.33;6.33;;;15.10;72.20;;;;;;12766499;23;20219;-87
2022/04/28 05:10:23;;;;;;;9.10;6.00;;;15.00;73.50;;;;;;12564433;23;20245;-87
2022/04/28 05:15:27;;;;;;;7.60;6.20;;;14.40;73.60;;;;;;12519932;23;20504;-87
2022/04/28 05:20:52;;;;;;;13.13;7.80;;;14.20;73.70;;;;;;12524473;23;20558;-86
2022/04/28 05:26:14;;;;;;;6.73;5.53;;;11.50;77.30;;;;;;12564404;23;20175;-86
2022/04/28 05:31:22;;;;;;;14.00;8.73;;;11.50;86.60;;;;;;12564402;23;20708;-86
2022/04/28 05:36:44;;;;;;;7.70;5.17;;;8.30;85.80;;;;;;12519245;23;20275;-87
2022/04/28 05:41:50;;;;;;;8.83;6.03;;;10.40;91.70;;;;;;12496971;23;20249;-87
2022/04/28 05:46:53;;;;;;;13.07;7.43;;;12.50;86.60;;;;;;12683606;23;20174;-86
2022/04/28 05:51:55;;;;;;;6.50;5.00;;;10.20;83.10;;;;;;12726614;23;20262;-86
2022/04/28 05:57:00;;;;;;;16.60;9.03;;;11.60;90.10;;;;;;12704411;23;20258;-91
2022/04/28 06:02:03;;;;;;;12.30;6.97;;;9.60;81.50;;;;;;12679713;23;20225;-86
2022/04/28 06:07:06;;;;;;;15.43;8.37;;;10.90;83.00;;;;;;12704879;23;20237;-86
2022/04/28 06:12:12;;;;;;;11.17;6.83;;;11.50;81.30;;;;;;12728735;23;20576;-86
2022/04/28 06:17:33;;;;;;;14.03;6.70;;;11.60;79.90;;;;;;12729700;23;20172;-86
2022/04/28 06:22:36;;;;;;;7.73;5.20;;;11.80;78.60;;;;;;12704816;23;20726;-86
2022/04/28 06:27:40;;;;;;;12.37;7.57;;;12.40;79.50;;;;;;12731681;23;20493;-86
2022/04/28 06:32:43;;;;;;;8.50;5.93;;;10.50;82.90;;;;;;12681216;23;20578;-86
2022/04/28 06:38:04;;;;;;;13.00;7.40;;;12.20;80.00;;;;;;12729686;23;20177;-86
2022/04/28 06:43:07;;;;;;;13.70;8.63;;;11.00;80.60;;;;;;12704775;23;20512;-86
2022/04/28 06:48:30;;;;;;;14.70;7.53;;;12.50;77.50;;;;;;12732455;23;20184;-87
2022/04/28 06:53:51;;;;;;;12.40;7.13;;;11.90;78.20;;;;;;12729188;23;20176;-86
2022/04/28 06:58:55;;;;;;;7.93;4.90;;;12.20;77.70;;;;;;12704304;23;20543;-86
2022/04/28 07:04:04;;;;;;;7.60;4.47;;;13.80;75.40;;;;;;12679785;23;20183;-85
2022/04/28 07:09:07;;;;;;;14.50;7.77;;;15.10;72.40;;;;;;12705049;23;20227;-86
2022/04/28 07:14:11;;;;;;;10.80;6.37;;;12.10;76.00;;;;;;12728592;23;20532;-86
2022/04/28 07:19:34;;;;;;;12.67;7.80;;;11.80;78.80;;;;;;12705874;23;20219;-86
2022/04/28 07:24:36;;;;;;;12.93;6.20;;;11.00;78.80;;;;;;12703913;23;20516;-87
2022/04/28 07:29:41;;;;;;;6.53;5.03;;;11.80;80.70;;;;;;12703954;23;20257;-89
2022/04/28 07:34:47;;;;;;;14.23;8.23;;;11.60;82.40;;;;;;12705276;23;20227;-90
2022/04/28 07:40:09;;;;;;;11.53;7.67;;;11.50;79.50;;;;;;12753282;23;20204;-93
2022/04/28 07:45:18;;;;;;;11.70;7.33;;;12.40;75.40;;;;;;12685056;23;20176;-93
2022/04/28 07:50:22;;;;;;;10.50;7.33;;;12.40;75.20;;;;;;12730378;23;20203;-94
2022/04/28 07:55:26;;;;;;;12.23;7.33;;;12.60;76.70;;;;;;12771109;23;20183;-93
2022/04/28 08:00:32;;;;;;;10.20;7.03;;;12.60;75.90;;;;;;12770976;23;20226;-93
2022/04/28 08:05:36;;;;;;;10.20;6.73;;;12.20;76.50;;;;;;12771064;23;20175;-93
2022/04/28 08:10:40;;;;;;;11.17;7.57;;;12.80;76.50;;;;;;12771707;23;20203;-93
2022/04/28 08:15:43;;;;;;;8.03;7.07;;;13.80;73.30;;;;;;12746613;23;20198;-93
2022/04/28 08:20:45;;;;;;;11.07;6.97;;;13.60;72.90;;;;;;12796448;23;20195;-93
2022/04/28 08:25:48;;;;;;;11.43;8.27;;;14.50;72.50;;;;;;12747251;23;20171;-92
2022/04/28 08:30:51;;;;;;;10.87;5.77;;;13.10;73.80;;;;;;12771589;23;20175;-94
2022/04/28 08:35:55;;;;;;;8.63;5.73;;;15.20;69.40;;;;;;12747132;23;20176;-93
2022/04/28 08:41:01;;;;;;;8.40;6.03;;;13.70;73.40;;;;;;12770082;23;20242;-94
2022/04/28 08:46:51;;;;;;;11.97;6.83;;;13.80;71.30;;;;;;12778659;23;20249;-93
2022/04/28 08:51:59;;;;;;;8.07;5.87;;;13.60;70.20;;;;;;12746483;23;20207;-93
2022/04/28 08:57:02;;;;;;;9.40;5.97;;;13.00;72.60;;;;;;12770049;23;20226;-93
2022/04/28 09:02:05;;;;;;;10.20;6.00;;;13.50;72.60;;;;;;12745712;23;20254;-93
2022/04/28 09:07:08;;;;;;;11.10;5.97;;;14.00;68.90;;;;;;12770981;23;20250;-94
2022/04/28 09:12:20;;;;;;;8.97;6.07;;;13.80;71.70;;;;;;12792686;23;20924;-93
2022/04/28 09:17:57;;;;;;;10.00;6.40;;;13.70;71.80;;;;;;12752128;23;20175;-94
2022/04/28 09:23:01;;;;;;;8.30;4.10;;;14.60;68.60;;;;;;12769906;23;20546;-92
2022/04/28 09:28:13;;;;;;;7.90;5.43;;;15.00;70.90;;;;;;12747434;23;20223;-94
2022/04/28 09:33:18;;;;;;;7.50;4.97;;;14.50;70.40;;;;;;12770281;23;20171;-94
2022/04/28 09:38:43;;;;;;;8.23;5.80;;;14.40;68.10;;;;;;12770049;23;20230;-94
2022/04/28 09:43:50;;;;;;;6.00;5.03;;;13.90;66.90;;;;;;12745735;23;20176;-94
2022/04/28 09:48:53;;;;;;;8.50;5.30;;;14.30;66.60;;;;;;12745100;23;20172;-94
2022/04/28 09:54:11;;;;;;;7.07;4.10;;;14.40;66.30;;;;;;12748377;23;20167;-93
2022/04/28 10:06:12;;;;;;;8.93;4.67;;;14.10;65.00;;;;;;12816595;23;20509;-92
2022/04/28 10:11:43;;;;;;;5.87;4.70;;;14.30;62.30;;;;;;12769317;23;20187;-92
2022/04/28 10:16:49;;;;;;;10.13;4.53;;;14.40;62.50;;;;;;12767630;23;20495;-93
2022/04/28 10:22:01;;;;;;;4.80;4.27;;;14.80;63.10;;;;;;12768978;23;20191;-94
2022/04/28 10:33:20;;;;;;;4.73;4.07;;;15.00;68.60;;;;;;12769224;23;20194;-94
2022/04/28 10:38:34;;;;;;;8.60;3.47;;;15.00;63.10;;;;;;12735974;23;20176;-96
2022/04/28 10:43:39;;;;;;;8.30;4.50;;;14.90;59.40;;;;;;12767859;23;20200;-92
2022/04/28 10:48:43;;;;;;;9.47;4.37;;;14.90;62.40;;;;;;12767962;23;20172;-93
2022/04/28 10:54:21;;;;;;;5.27;4.40;;;14.90;62.20;;;;;;12794315;23;20172;-92
2022/04/28 10:59:32;;;;;;;4.47;4.07;;;15.30;62.80;;;;;;12784561;23;20215;-92
2022/04/28 11:04:36;;;;;;;4.37;3.63;;;15.10;60.40;;;;;;12768310;23;20221;-92
2022/04/28 11:09:44;;;;;;;7.23;4.23;;;15.30;62.60;;;;;;12767855;23;20207;-93
2022/04/28 11:14:59;;;;;;;5.40;3.03;;;15.20;60.60;;;;;;12768133;23;20250;-93
2022/04/28 11:20:11;;;;;;;5.47;2.73;;;15.40;66.10;;;;;;12769580;23;20195;-93
2022/04/28 11:25:35;;;;;;;8.53;4.00;;;15.50;59.10;;;;;;12796489;23;20179;-92
2022/04/28 11:30:42;;;;;;;3.87;3.27;;;15.90;63.90;;;;;;12747479;23;20531;-93
2022/04/28 11:35:46;;;;;;;4.83;3.53;;;16.00;62.00;;;;;;12746939;23;20180;-92
2022/04/28 11:41:03;;;;;;;4.60;3.23;;;16.20;61.80;;;;;;12770898;23;20252;-93
2022/04/28 11:46:07;;;;;;;14.33;6.17;;;15.60;59.70;;;;;;12771372;23;20176;-93
2022/04/28 11:51:09;;;;;;;12.47;3.97;;;15.50;61.60;;;;;;12747965;23;20261;-94
2022/04/28 11:56:20;;;;;;;4.60;3.53;;;15.70;62.80;;;;;;12771631;23;20569;-93
2022/04/28 12:01:23;;;;;;;4.53;3.50;;;15.90;59.30;;;;;;12790899;23;20211;-94
2022/04/28 12:06:26;;;;;;;5.60;4.07;;;16.20;63.20;;;;;;12772193;23;20172;-93
2022/04/28 12:22:31;;;;;;;6.20;3.53;;;16.40;66.20;;;;;;12772106;23;20223;-94
2022/04/28 12:27:43;;;;;;;3.90;3.30;;;16.70;61.70;;;;;;12772692;23;20168;-94
2022/04/28 12:32:54;;;;;;;3.40;2.90;;;16.00;58.60;;;;;;12771706;23;20179;-93
2022/04/28 12:38:00;;;;;;;3.60;2.87;;;15.90;57.70;;;;;;12790269;23;20234;-94
2022/04/28 12:43:03;;;;;;;5.23;2.90;;;16.60;65.50;;;;;;12771464;23;20183;-94
2022/04/28 12:48:06;;;;;;;5.53;2.73;;;16.90;57.40;;;;;;12745374;23;20173;-93
2022/04/28 12:53:29;;;;;;;5.27;2.73;;;16.20;56.70;;;;;;12771527;23;20254;-93
2022/04/28 12:58:35;;;;;;;3.67;2.40;;;16.10;56.50;;;;;;12770538;23;20211;-94
2022/04/28 13:03:40;;;;;;;6.27;2.63;;;16.10;53.20;;;;;;12769445;23;20257;-91
2022/04/28 13:08:45;;;;;;;3.33;2.70;;;16.40;62.20;;;;;;12769505;23;20704;-92
2022/04/28 13:13:47;;;;;;;6.60;2.87;;;16.60;55.60;;;;;;12795006;23;20215;-93
2022/04/28 13:18:50;;;;;;;3.57;2.60;;;16.10;54.30;;;;;;12747493;23;20570;-93
2022/04/28 13:23:52;;;;;;;6.10;2.70;;;15.70;58.40;;;;;;12771290;23;20726;-94
2022/04/28 13:28:56;;;;;;;4.27;2.77;;;15.70;56.70;;;;;;12746665;23;20215;-92
2022/04/28 13:33:59;;;;;;;5.50;3.47;;;15.30;55.70;;;;;;12770116;23;20179;-93
2022/04/28 13:39:02;;;;;;;6.10;2.83;;;15.80;57.90;;;;;;12745162;23;20176;-94
2022/04/28 13:44:06;;;;;;;6.60;3.10;;;15.60;64.20;;;;;;12769800;23;20222;-93
2022/04/28 13:49:09;;;;;;;2.63;2.20;;;15.50;53.50;;;;;;12768640;23;20250;-92
2022/04/28 13:54:12;;;;;;;5.30;2.47;;;15.60;53.00;;;;;;12745297;23;20177;-95
2022/04/28 13:59:15;;;;;;;3.60;2.90;;;15.80;55.40;;;;;;12766781;23;20238;-93
2022/04/28 14:04:19;;;;;;;4.47;2.70;;;16.30;65.20;;;;;;12785959;23;20184;-91
2022/04/28 14:09:22;;;;;;;7.27;2.83;;;16.80;62.70;;;;;;12765866;23;20175;-90
2022/04/28 14:14:25;;;;;;;6.33;3.70;;;17.00;54.10;;;;;;12765956;23;20233;-91
2022/04/28 14:19:27;;;;;;;4.47;3.13;;;16.80;53.60;;;;;;12765916;23;20178;-92
2022/04/28 14:24:30;;;;;;;4.23;3.10;;;16.80;62.70;;;;;;12785327;23;20191;-93
2022/04/28 14:29:33;;;;;;;7.33;4.90;;;17.00;55.80;;;;;;12767399;23;20176;-91
2022/04/28 14:34:35;;;;;;;6.57;3.97;;;16.90;58.40;;;;;;12767853;23;20207;-91
2022/04/28 14:39:39;;;;;;;5.77;2.73;;;17.10;55.70;;;;;;12765993;23;20175;-93
2022/04/28 14:44:42;;;;;;;9.40;3.77;;;17.00;53.30;;;;;;12742476;23;20201;-94
2022/04/28 14:55:08;;;;;;;6.60;2.70;;;16.50;55.40;;;;;;12775537;23;20183;-81
2022/04/28 15:00:18;;;;;;;4.90;2.70;;;17.00;53.60;;;;;;12820029;23;20246;-81
2022/04/28 15:05:21;;;;;;;3.03;2.50;;;17.20;53.00;;;;;;12776879;23;20202;-81
2022/04/28 15:10:23;;;;;;;20.30;4.43;;;17.40;51.90;;;;;;12794753;23;20227;-77
2022/04/28 15:15:26;;;;;;;11.50;3.20;;;16.20;54.70;;;;;;12811258;23;20168;-79
2022/04/28 15:20:29;;;;;;;4.37;2.90;;;15.70;55.50;;;;;;12767445;23;20192;-78
2022/04/28 15:25:31;;;;;;;4.87;2.53;;;15.90;56.60;;;;;;12793570;23;20172;-79
2022/04/28 15:30:34;;;;;;;4.60;2.70;;;15.60;54.90;;;;;;12793093;23;20562;-79
2022/04/28 15:35:37;;;;;;;5.10;2.93;;;15.50;55.80;;;;;;12812503;23;20195;-79
2022/04/28 15:40:39;;;;;;;11.00;3.00;;;15.40;56.30;;;;;;12767031;23;20574;-79
2022/04/28 15:45:47;;;;;;;5.20;3.00;;;15.40;56.30;;;;;;12794881;23;20526;-79
2022/04/28 15:50:49;;;;;;;5.33;2.10;;;15.20;57.00;;;;;;12795142;23;20195;-79
2022/04/28 15:55:52;;;;;;;14.03;3.60;;;16.30;64.10;;;;;;12794337;23;20556;-79
2022/04/28 16:00:54;;;;;;;8.50;3.07;;;15.90;55.90;;;;;;12795844;23;20188;-79
2022/04/28 16:05:58;;;;;;;8.57;2.93;;;15.20;56.70;;;;;;12767660;23;20176;-79
2022/04/28 16:11:03;;;;;;;8.77;2.77;;;15.10;56.10;;;;;;12794489;23;20253;-79
2022/04/28 16:16:06;;;;;;;6.33;2.83;;;15.10;56.90;;;;;;12786417;23;20218;-79
2022/04/28 16:21:09;;;;;;;2.93;2.50;;;15.00;56.40;;;;;;12793731;23;20191;-79
2022/04/28 16:26:11;;;;;;;9.50;2.57;;;14.90;57.80;;;;;;12763191;23;20518;-79
2022/04/28 16:31:14;;;;;;;7.43;3.20;;;15.10;56.90;;;;;;12790670;23;20199;-78
2022/04/28 16:36:16;;;;;;;6.90;2.80;;;15.30;56.10;;;;;;12790900;23;20203;-78
2022/04/28 16:41:19;;;;;;;7.50;2.20;;;15.60;55.90;;;;;;12764362;23;20196;-78
2022/04/28 16:46:21;;;;;;;11.23;2.77;;;16.10;67.60;;;;;;12789770;23;20168;-78
2022/04/28 16:51:26;;;;;;;3.00;2.37;;;16.50;63.20;;;;;;12789142;23;20583;-79
2022/04/28 16:56:28;;;;;;;8.27;2.90;;;17.20;57.90;;;;;;12789527;23;20172;-79
2022/04/28 17:01:31;;;;;;;2.47;2.00;;;18.00;62.30;;;;;;12786507;23;20199;-78
2022/04/28 17:06:33;;;;;;;9.53;2.60;;;17.00;51.30;;;;;;12788324;23;20164;-79
2022/04/28 17:11:36;;;;;;;10.07;2.80;;;17.90;59.70;;;;;;12788022;23;20327;-79
2022/04/28 17:16:41;;;;;;;7.00;2.40;;;18.80;56.70;;;;;;12762018;23;20180;-78
2022/04/28 17:21:50;;;;;;;4.77;2.17;;;19.00;55.60;;;;;;12781040;23;20191;-79
2022/04/28 17:26:53;;;;;;;6.67;2.07;;;18.80;57.20;;;;;;12791052;23;20561;-79
2022/04/28 17:31:56;;;;;;;8.90;2.73;;;18.80;57.60;;;;;;12788298;23;20736;-79
2022/04/28 17:37:02;;;;;;;4.80;2.27;;;19.00;58.20;;;;;;12789104;23;20222;-79
2022/04/28 17:42:07;;;;;;;3.53;1.93;;;19.00;57.90;;;;;;12788024;23;20188;-79
2022/04/28 17:47:10;;;;;;;3.93;2.20;;;18.80;58.60;;;;;;12761419;23;20283;-79
2022/04/28 17:52:12;;;;;;;6.63;2.57;;;18.50;59.40;;;;;;12760839;23;20207;-79
2022/04/28 18:02:36;;;;;;;2.80;2.00;;;18.10;60.90;;;;;;12805031;23;20254;-79
2022/04/28 18:07:39;;;;;;;3.13;2.27;;;18.30;60.70;;;;;;12789945;23;20168;-79
2022/04/28 18:12:42;;;;;;;4.07;2.30;;;18.20;61.00;;;;;;12789346;23;20236;-79
2022/04/28 18:17:44;;;;;;;4.20;2.70;;;18.20;61.30;;;;;;12761718;23;20646;-79
2022/04/28 18:22:47;;;;;;;3.50;1.90;;;18.20;61.60;;;;;;12787964;23;20531;-79
2022/04/28 18:27:49;;;;;;;1.87;1.63;;;18.10;61.70;;;;;;12786281;23;20172;-82
2022/04/28 18:32:52;;;;;;;9.90;5.40;;;18.00;62.20;;;;;;12790096;23;20167;-79
2022/04/28 18:48:36;;;;;;;9.30;5.27;;;17.70;57.60;;;;;;12792002;23;20171;-79
2022/04/28 18:53:39;;;;;;;17.77;6.67;;;17.70;58.30;;;;;;12791901;23;20218;-79
2022/04/28 18:58:43;;;;;;;9.73;6.00;;;17.70;55.80;;;;;;12765513;23;20262;-79
2022/04/28 19:03:45;;;;;;;14.33;8.00;;;16.00;62.40;;;;;;12792246;23;20238;-80
2022/04/28 19:08:48;;;;;;;25.73;9.37;;;14.60;59.90;;;;;;12765317;23;20172;-79
2022/04/28 19:13:50;;;;;;;31.60;9.57;;;12.70;67.10;;;;;;12795143;23;20172;-79
2022/04/28 19:18:53;;;;;;;30.23;11.13;;;11.90;69.90;;;;;;12791464;23;20573;-79
2022/04/28 19:23:55;;;;;;;23.33;10.57;;;11.10;72.30;;;;;;12808899;23;20191;-79
2022/04/28 19:28:59;;;;;;;24.10;10.17;;;10.50;73.80;;;;;;12764462;23;20180;-78
2022/04/28 19:34:02;;;;;;;30.77;12.03;;;10.20;77.50;;;;;;12765262;23;20206;-79
2022/04/28 19:39:05;;;;;;;16.03;7.93;;;10.10;76.30;;;;;;12789569;23;20176;-78
2022/04/28 19:44:07;;;;;;;15.43;7.53;;;11.50;82.40;;;;;;12797005;23;20239;-79
2022/04/28 19:49:11;;;;;;;50.97;22.67;;;12.70;78.40;;;;;;12767910;23;20663;-79
2022/04/28 19:54:14;;;;;;;26.03;14.23;;;12.10;69.60;;;;;;12795565;23;20194;-79
2022/04/28 19:59:17;;;;;;;12.00;6.93;;;10.40;78.10;;;;;;12768522;23;20184;-79
2022/04/28 20:04:19;;;;;;;24.93;10.03;;;12.70;78.80;;;;;;12792423;23;20188;-79
2022/04/28 20:09:22;;;;;;;27.50;14.03;;;13.60;75.30;;;;;;12792153;23;20678;-79
2022/04/28 20:14:26;;;;;;;30.80;16.07;;;13.30;73.30;;;;;;12793878;23;20203;-79
2022/04/28 20:19:28;;;;;;;14.20;8.30;;;11.60;71.50;;;;;;12766313;23;20176;-79
2022/04/28 20:24:32;;;;;;;16.80;7.60;;;12.50;79.40;;;;;;12792747;23;20239;-79
2022/04/28 20:29:35;;;;;;;20.17;12.00;;;13.70;75.90;;;;;;12765554;23;20180;-80
2022/04/28 20:34:39;;;;;;;24.63;13.43;;;14.00;72.20;;;;;;12765862;23;20183;-79
2022/04/28 20:39:49;;;;;;;20.73;9.00;;;11.60;70.40;;;;;;12765739;23;20179;-79
2022/04/28 20:44:54;;;;;;;19.93;8.43;;;9.30;91.90;;;;;;12764837;23;20200;-79
2022/04/28 20:49:56;;;;;;;17.43;7.30;;;12.40;86.40;;;;;;12793343;23;20545;-79
2022/04/28 20:54:59;;;;;;;11.60;9.03;;;13.50;80.80;;;;;;12793125;23;20196;-79
2022/04/28 21:00:04;;;;;;;13.70;8.10;;;13.80;78.90;;;;;;12766527;23;20190;-79
2022/04/28 21:05:07;;;;;;;18.43;9.03;;;14.20;77.60;;;;;;12792522;23;20190;-79
2022/04/28 21:10:15;;;;;;;23.73;11.00;;;14.30;76.70;;;;;;12791853;23;20203;-79
2022/04/28 21:15:19;;;;;;;24.07;13.13;;;14.50;75.60;;;;;;12764709;23;20500;-78
2022/04/28 21:20:24;;;;;;;16.77;8.57;;;9.60;85.70;;;;;;12785030;23;20164;-78
2022/04/28 21:25:29;;;;;;;18.83;9.17;;;11.30;91.10;;;;;;12792209;23;20191;-78
2022/04/28 21:30:32;;;;;;;23.80;11.00;;;12.80;86.30;;;;;;12792279;23;20226;-79
2022/04/28 21:35:34;;;;;;;14.07;8.13;;;13.10;83.50;;;;;;12765110;23;20706;-79
2022/04/28 21:40:37;;;;;;;15.07;8.80;;;13.30;82.10;;;;;;12810701;23;20175;-79
2022/04/28 21:45:40;;;;;;;20.13;11.03;;;13.50;81.60;;;;;;12767227;23;20211;-79
2022/04/28 21:50:43;;;;;;;17.77;8.07;;;13.60;80.10;;;;;;12793086;23;20192;-79
2022/04/28 21:55:46;;;;;;;12.13;8.17;;;13.40;80.60;;;;;;12790936;23;20172;-79
2022/04/28 22:00:49;;;;;;;14.03;8.70;;;13.50;80.40;;;;;;12808098;23;20220;-79
2022/04/28 22:11:13;;;;;;;17.17;9.77;;;14.10;78.80;;;;;;12807223;23;20172;-79
2022/04/28 22:16:17;;;;;;;14.37;8.93;;;14.10;77.70;;;;;;12792579;23;20174;-79
2022/04/28 22:21:21;;;;;;;10.67;7.67;;;13.50;79.30;;;;;;12790428;23;20176;-79
2022/04/28 22:26:24;;;;;;;13.73;7.73;;;13.50;80.70;;;;;;12806928;23;20231;-79
2022/04/28 22:31:28;;;;;;;14.53;8.97;;;14.50;77.90;;;;;;12792188;23;20504;-79
2022/04/28 22:36:33;;;;;;;12.93;7.33;;;14.60;75.50;;;;;;12764394;23;20180;-79
2022/04/28 22:41:36;;;;;;;11.10;6.47;;;14.00;78.00;;;;;;12804972;23;20175;-79
2022/04/28 22:46:39;;;;;;;11.93;6.97;;;14.30;77.80;;;;;;12791769;23;20568;-79
2022/04/28 22:51:42;;;;;;;12.23;8.70;;;14.40;77.20;;;;;;12764002;23;20516;-79
2022/04/28 22:56:44;;;;;;;10.40;7.40;;;14.20;77.10;;;;;;12791631;23;20556;-79
2022/04/28 23:01:47;;;;;;;10.53;7.03;;;13.80;77.80;;;;;;12791335;23;20171;-79
2022/04/28 23:06:50;;;;;;;12.17;6.97;;;13.90;77.00;;;;;;12791244;23;20163;-79
2022/04/28 23:11:52;;;;;;;9.43;6.57;;;14.30;77.80;;;;;;12792316;23;20173;-79
2022/04/28 23:16:55;;;;;;;10.70;7.00;;;14.00;77.80;;;;;;12794298;23;20168;-79
2022/04/28 23:21:57;;;;;;;11.40;6.90;;;14.50;76.60;;;;;;12795559;23;20331;-79
2022/04/28 23:27:00;;;;;;;9.50;6.27;;;14.80;75.60;;;;;;12794455;23;20171;-81
2022/04/28 23:32:03;;;;;;;9.83;5.93;;;15.10;74.10;;;;;;12795435;23;20579;-79
2022/04/28 23:42:27;;;;;;;9.47;6.37;;;15.00;74.50;;;;;;12804318;23;20234;-79
2022/04/28 23:47:30;;;;;;;9.87;7.17;;;14.60;75.20;;;;;;12792959;23;20168;-79
2022/04/28 23:57:54;;;;;;;9.80;5.97;;;14.20;76.80;;;;;;12803128;23;20198;-79
